createdAt,value
2023-02-09T01:13:33.977Z,31.00
2023-02-09T01:16:07.923Z,36.60
2023-02-09T01:18:35.013Z,35.80
2023-02-09T01:21:02.638Z,36.80
2023-02-09T01:23:29.541Z,34.20
2023-02-09T01:26:07.286Z,31.40
2023-02-09T01:28:34.991Z,30.80
2023-02-09T01:31:04.410Z,27.20
2023-02-09T01:33:32.573Z,30.10
2023-02-09T01:36:02.912Z,29.10
2023-02-09T01:38:29.862Z,28.40
2023-02-09T01:40:56.927Z,29.80
2023-02-09T01:43:23.614Z,27.80
2023-02-09T01:45:54.042Z,28.70
2023-02-09T01:48:25.442Z,26.80
2023-02-09T01:50:54.571Z,28.40
2023-02-09T01:53:21.274Z,22.80
2023-02-09T01:55:55.902Z,26.80
2023-02-09T01:58:22.727Z,24.00
2023-02-09T02:00:49.409Z,28.30
2023-02-09T02:03:19.381Z,27.10
2023-02-09T02:05:47.932Z,27.90
2023-02-09T02:08:27.996Z,28.40
2023-02-09T02:10:55.988Z,31.70
2023-02-09T02:13:22.711Z,30.90
2023-02-09T02:16:04.521Z,30.20
2023-02-09T02:18:49.822Z,30.80
2023-02-09T02:21:47.283Z,27.50
2023-02-09T02:24:39.280Z,30.70
2023-02-09T02:27:34.330Z,26.50
2023-02-09T02:30:12.725Z,24.70
2023-02-09T02:32:42.799Z,28.00
2023-02-09T02:37:51.720Z,26.70
2023-02-09T02:41:06.880Z,27.40
2023-02-09T02:43:55.346Z,26.70
2023-02-09T02:46:32.852Z,27.80
2023-02-09T02:49:08.334Z,24.90
2023-02-09T02:51:39.730Z,29.40
2023-02-09T02:54:12.999Z,28.80
2023-02-09T02:56:44.235Z,28.60
2023-02-09T02:59:13.029Z,27.90
2023-02-09T03:01:49.513Z,27.40
2023-02-09T03:04:17.544Z,28.50
2023-02-09T03:06:44.499Z,24.70
2023-02-09T03:09:11.199Z,28.80
2023-02-09T03:11:51.613Z,27.80
2023-02-09T03:14:42.546Z,29.00
2023-02-09T03:17:28.302Z,25.60
2023-02-09T03:20:10.643Z,29.10
2023-02-09T03:22:39.470Z,27.50
2023-02-09T03:25:15.499Z,25.20
2023-02-09T03:28:08.123Z,25.00
2023-02-09T03:30:35.288Z,25.50
2023-02-09T03:33:03.295Z,23.70
2023-02-09T03:35:35.445Z,23.20
2023-02-09T03:38:06.223Z,24.30
2023-02-09T03:40:34.037Z,21.70
2023-02-09T03:43:00.758Z,24.30
2023-02-09T03:45:28.572Z,26.00
2023-02-09T03:47:56.031Z,26.70
2023-02-09T03:50:23.172Z,27.70
2023-02-09T03:52:50.167Z,25.20
2023-02-09T03:55:16.900Z,25.20
2023-02-09T03:57:43.948Z,24.00
2023-02-09T04:00:12.289Z,26.20
2023-02-09T04:02:39.027Z,25.80
2023-02-09T04:05:06.253Z,27.20
2023-02-09T04:07:34.610Z,27.20
2023-02-09T04:10:01.872Z,27.90
2023-02-09T04:12:29.016Z,27.80
2023-02-09T04:14:56.637Z,26.00
2023-02-09T04:17:23.341Z,28.30
2023-02-09T04:19:50.222Z,27.20
2023-02-09T04:22:18.028Z,28.40
2023-02-09T04:24:44.990Z,28.50
2023-02-09T04:27:12.525Z,27.10
2023-02-09T04:29:39.243Z,29.40
2023-02-09T04:32:06.194Z,29.70
2023-02-09T04:34:33.153Z,28.60
2023-02-09T04:37:01.280Z,26.10
2023-02-09T04:39:28.316Z,24.90
2023-02-09T04:41:56.610Z,25.70
2023-02-09T04:44:23.763Z,22.90
2023-02-09T04:46:50.485Z,22.90
2023-02-09T04:49:17.328Z,22.50
2023-02-09T04:51:44.468Z,22.10
2023-02-09T04:54:11.889Z,21.00
2023-02-09T04:56:43.426Z,26.40
2023-02-09T04:59:28.615Z,25.80
2023-02-09T05:01:56.692Z,25.70
2023-02-09T05:04:23.699Z,25.80
2023-02-09T05:06:50.438Z,30.70
2023-02-09T05:09:17.320Z,42.20
2023-02-09T05:11:44.172Z,39.20
2023-02-09T05:14:11.116Z,36.10
2023-02-09T05:16:39.319Z,35.20
2023-02-09T05:19:06.556Z,32.70
2023-02-09T05:21:33.593Z,26.50
2023-02-09T05:24:00.452Z,28.60
2023-02-09T05:26:27.505Z,26.60
2023-02-09T05:28:54.390Z,28.80
2023-02-09T05:31:25.617Z,27.30
2023-02-09T05:33:53.418Z,33.00
2023-02-09T05:36:20.199Z,31.00
2023-02-09T05:38:47.445Z,33.60
2023-02-09T05:41:36.894Z,34.50
2023-02-09T05:46:30.920Z,33.00
2023-02-09T05:48:57.858Z,33.40
2023-02-09T05:51:24.805Z,36.50
2023-02-09T05:53:53.106Z,26.70
2023-02-09T05:56:20.486Z,32.90
2023-02-09T05:58:47.147Z,29.00
2023-02-09T06:01:13.875Z,29.90
2023-02-09T06:03:41.019Z,27.80
2023-02-09T06:06:07.791Z,31.30
2023-02-09T06:08:36.052Z,30.30
2023-02-09T06:11:05.470Z,29.50
2023-02-09T06:13:34.621Z,28.50
2023-02-09T06:16:01.392Z,32.10
2023-02-09T06:18:28.286Z,33.60
2023-02-09T06:20:54.979Z,34.70
2023-02-09T06:23:21.857Z,38.60
2023-02-09T06:25:52.475Z,41.40
2023-02-09T06:28:19.952Z,34.40
2023-02-09T06:30:51.634Z,36.70
2023-02-09T06:33:19.052Z,33.10
2023-02-09T06:35:52.028Z,33.00
2023-02-09T06:38:19.123Z,35.90
2023-02-09T06:40:46.666Z,33.00
2023-02-09T06:43:14.086Z,33.30
2023-02-09T06:45:41.018Z,33.80
2023-02-09T06:48:08.405Z,36.50
2023-02-09T06:50:36.018Z,34.10
2023-02-09T06:53:03.724Z,32.50
2023-02-09T06:55:31.032Z,32.50
2023-02-09T06:57:57.934Z,32.60
2023-02-09T07:00:24.879Z,35.50
2023-02-09T07:02:52.584Z,34.30
2023-02-09T07:05:19.401Z,36.30
2023-02-09T07:07:46.142Z,33.60
2023-02-09T07:10:14.592Z,37.70
2023-02-09T07:12:42.874Z,36.50
2023-02-09T07:15:10.040Z,35.30
2023-02-09T07:17:39.311Z,31.40
2023-02-09T10:54:21.766Z,28.40
2023-02-09T10:56:50.202Z,27.50
2023-02-09T10:59:20.585Z,33.30
2023-02-09T11:02:00.099Z,35.20
2023-02-09T11:04:39.865Z,36.40
2023-02-09T11:07:13.708Z,38.00
2023-02-09T11:09:46.817Z,32.80
2023-02-09T11:12:15.368Z,27.60
2023-02-09T11:14:46.105Z,31.90
2023-02-09T11:17:23.380Z,28.70
2023-02-09T11:20:15.780Z,33.00
2023-02-09T11:22:51.293Z,29.30
2023-02-09T11:25:25.570Z,30.60
2023-02-09T11:28:10.160Z,29.40
2023-02-09T11:30:49.314Z,27.80
2023-02-09T11:33:59.487Z,28.70
2023-02-09T11:36:50.926Z,25.90
2023-02-09T11:39:32.040Z,27.30
2023-02-09T11:42:28.804Z,27.20
2023-02-09T11:45:02.756Z,28.00
2023-02-09T11:47:47.544Z,26.00
2023-02-09T11:50:39.018Z,20.70
2023-02-09T11:53:35.099Z,24.70
2023-02-09T11:56:05.471Z,24.60
2023-02-09T11:58:45.286Z,25.00
2023-02-09T12:01:42.255Z,25.90
2023-02-09T12:04:29.281Z,23.10
2023-02-09T12:07:00.163Z,20.60
2023-02-09T12:09:33.471Z,18.60
2023-02-09T12:12:06.689Z,25.00
2023-02-09T12:14:52.449Z,24.50
2023-02-09T12:17:23.817Z,22.10
2023-02-09T12:19:58.162Z,21.60
2023-02-09T12:22:36.023Z,20.60
2023-02-09T12:25:05.057Z,20.80
2023-02-09T12:27:33.866Z,22.00
2023-02-09T12:30:40.501Z,19.30
2023-02-09T12:33:24.412Z,17.80
2023-02-09T12:36:08.634Z,19.50
2023-02-09T12:38:52.955Z,21.30
2023-02-09T12:41:28.344Z,20.80
2023-02-09T12:44:06.184Z,21.80
2023-02-09T12:46:55.758Z,24.70
2023-02-09T12:49:27.302Z,21.30
2023-02-09T12:52:01.720Z,22.80
2023-02-09T12:54:52.965Z,26.50
2023-02-09T12:57:22.374Z,24.50
2023-02-09T12:59:58.171Z,31.60
2023-02-09T13:02:51.042Z,23.50
2023-02-09T13:05:25.105Z,23.20
2023-02-09T13:08:02.669Z,19.70
2023-02-09T13:10:36.257Z,24.00
2023-02-09T13:13:11.551Z,24.10
2023-02-09T13:16:05.020Z,18.60
2023-02-09T13:18:46.351Z,24.50
2023-02-09T13:21:36.382Z,21.70
2023-02-09T13:24:09.546Z,21.50
2023-02-09T13:26:55.963Z,23.10
2023-02-09T13:29:29.095Z,23.70
2023-02-09T13:32:13.001Z,23.20
2023-02-09T13:34:46.824Z,19.70
2023-02-09T13:37:42.560Z,22.40
2023-02-09T13:40:18.465Z,23.30
2023-02-09T13:43:09.910Z,21.20
2023-02-09T13:45:52.091Z,17.90
2023-02-09T13:48:23.963Z,22.60
2023-02-09T13:50:55.360Z,19.60
2023-02-09T13:53:24.986Z,21.00
2023-02-09T13:55:54.053Z,23.60
2023-02-09T13:58:23.279Z,22.30
2023-02-09T14:00:52.056Z,17.30
2023-02-09T14:03:22.620Z,20.20
2023-02-09T14:06:01.897Z,23.80
2023-02-09T14:08:32.871Z,18.20
2023-02-09T14:11:19.169Z,24.40
2023-02-09T14:13:49.854Z,21.10
2023-02-09T14:18:51.413Z,20.50
2023-02-09T14:21:20.967Z,24.40
2023-02-09T14:24:01.792Z,18.70
2023-02-09T14:26:34.221Z,22.50
2023-02-09T14:29:02.446Z,18.20
2023-02-09T14:31:37.769Z,21.80
2023-02-09T14:34:21.673Z,22.50
2023-02-09T14:36:52.122Z,24.10
2023-02-09T14:39:21.231Z,21.60
2023-02-09T14:42:18.232Z,19.90
2023-02-09T14:44:57.397Z,21.60
2023-02-09T14:47:35.010Z,26.10
2023-02-09T14:50:03.201Z,27.50
2023-02-09T14:52:33.338Z,26.30
2023-02-09T14:55:05.735Z,22.80
2023-02-09T14:57:36.279Z,26.90
2023-02-09T15:00:21.966Z,29.70
2023-02-09T15:02:50.919Z,31.20
2023-02-09T15:05:19.736Z,31.70
2023-02-09T15:07:59.590Z,29.70
2023-02-09T15:10:32.868Z,26.70
2023-02-09T15:13:05.428Z,26.90
2023-02-09T15:15:37.778Z,28.10
2023-02-09T15:18:21.413Z,29.00
2023-02-09T15:20:49.561Z,31.50
2023-02-09T15:23:18.044Z,28.70
2023-02-09T15:25:46.454Z,25.40
2023-02-09T15:28:28.888Z,23.20
2023-02-09T15:30:58.402Z,20.10
2023-02-09T15:33:27.210Z,21.30
2023-02-09T15:35:58.957Z,21.70
2023-02-09T15:38:28.331Z,18.10
2023-02-09T15:41:15.337Z,21.90
2023-02-09T15:44:01.951Z,22.50
2023-02-09T15:46:49.093Z,23.90
2023-02-09T15:49:17.367Z,23.30
2023-02-09T15:51:48.292Z,24.10
2023-02-09T15:54:20.798Z,20.60
2023-02-09T15:56:49.816Z,30.70
2023-02-09T15:59:19.586Z,25.70
2023-02-09T16:01:48.671Z,24.90
2023-02-09T16:04:16.835Z,26.50
2023-02-09T16:06:48.628Z,29.20
2023-02-09T19:23:00.036Z,33.70
2023-02-09T19:25:29.481Z,27.00
2023-02-09T19:27:58.513Z,25.70
2023-02-09T19:30:28.676Z,24.90
2023-02-09T19:35:29.472Z,21.90
2023-02-09T19:37:58.495Z,25.40
2023-02-09T19:40:36.218Z,21.60
2023-02-09T19:43:06.073Z,24.20
2023-02-09T19:45:40.844Z,23.20
2023-02-09T19:48:09.547Z,23.40
2023-02-09T19:50:43.177Z,21.70
2023-02-09T19:53:11.551Z,20.60
2023-02-09T19:55:41.429Z,20.40
2023-02-09T19:58:11.484Z,17.20
2023-02-09T20:00:40.755Z,20.00
2023-02-09T20:03:09.136Z,21.90
2023-02-09T20:05:44.411Z,20.80
2023-02-09T20:08:20.491Z,20.90
2023-02-09T20:10:53.765Z,25.30
2023-02-09T20:16:06.622Z,24.20
2023-02-09T20:18:40.907Z,24.50
2023-02-09T20:21:12.348Z,20.70
2023-02-09T20:23:41.324Z,23.70
2023-02-09T20:26:18.740Z,21.90
2023-02-09T20:28:46.926Z,21.80
2023-02-09T20:31:22.428Z,20.80
2023-02-09T20:33:50.819Z,21.70
2023-02-09T20:36:18.949Z,21.00
2023-02-09T20:38:48.875Z,19.60
2023-02-09T20:41:17.709Z,18.50
2023-02-09T20:44:04.973Z,17.00
2023-02-09T20:46:55.687Z,18.90
2023-02-09T20:49:31.406Z,18.20
2023-02-09T20:51:59.520Z,18.50
2023-02-09T20:54:27.737Z,14.20
2023-02-09T20:56:55.728Z,18.00
2023-02-09T20:59:24.463Z,15.70
2023-02-09T21:01:52.864Z,17.00
2023-02-09T21:04:20.960Z,15.80
2023-02-09T21:06:49.174Z,15.60
2023-02-09T21:09:17.250Z,16.30
2023-02-09T21:11:48.228Z,19.20
2023-02-09T21:14:27.241Z,17.90
2023-02-09T21:17:03.354Z,17.50
2023-02-09T21:19:33.715Z,17.00
2023-02-09T21:22:02.402Z,20.30
2023-02-09T21:24:30.886Z,21.60
2023-02-09T21:27:00.869Z,19.60
2023-02-09T21:29:29.341Z,18.90
2023-02-09T21:32:01.087Z,17.50
2023-02-09T21:34:29.631Z,17.10
2023-02-09T21:36:58.107Z,18.80
2023-02-09T21:39:26.190Z,15.70
2023-02-09T21:42:13.315Z,15.90
2023-02-09T21:44:42.059Z,15.90
2023-02-09T21:47:10.684Z,13.90
2023-02-09T21:49:38.851Z,16.90
2023-02-09T21:52:07.437Z,16.90
2023-02-09T21:54:35.669Z,17.50
2023-02-09T21:57:03.923Z,18.10
2023-02-09T21:59:31.925Z,20.50
2023-02-09T22:02:00.047Z,18.30
2023-02-09T22:04:28.221Z,19.70
2023-02-09T22:06:57.194Z,19.10
2023-02-09T22:09:28.115Z,16.20
2023-02-09T22:11:56.239Z,18.00
2023-02-09T22:14:24.325Z,16.30
2023-02-09T22:16:53.725Z,18.20
2023-02-09T22:19:22.848Z,19.40
2023-02-09T22:21:51.246Z,17.50
2023-02-09T22:24:19.458Z,14.30
2023-02-09T22:26:48.898Z,15.40
2023-02-09T22:29:17.156Z,17.50
2023-02-09T22:31:45.889Z,20.10
2023-02-09T22:34:13.949Z,18.20
2023-02-09T22:36:42.943Z,13.70
2023-02-09T22:39:11.068Z,17.30
2023-02-09T22:41:39.095Z,17.20
2023-02-09T22:44:10.138Z,17.70
2023-02-09T22:46:39.456Z,17.70
2023-02-09T22:49:09.375Z,16.40
2023-02-09T22:51:37.982Z,18.50
2023-02-09T22:54:06.187Z,14.60
2023-02-09T22:56:34.333Z,18.30
2023-02-09T22:59:02.391Z,19.20
2023-02-09T23:01:30.654Z,18.30
2023-02-09T23:03:59.040Z,22.10
2023-02-09T23:06:28.105Z,17.50
2023-02-09T23:09:00.243Z,20.20
2023-02-09T23:11:28.935Z,17.30
2023-02-09T23:14:11.909Z,14.40
2023-02-09T23:16:40.933Z,17.90
2023-02-09T23:19:11.174Z,17.20
2023-02-09T23:21:41.596Z,17.70
2023-02-09T23:24:10.012Z,17.80
2023-02-09T23:26:38.542Z,14.50
2023-02-09T23:29:08.434Z,17.40
2023-02-09T23:34:05.188Z,14.50
2023-02-09T23:36:35.250Z,14.50
2023-02-09T23:39:05.005Z,15.20
2023-02-09T23:41:34.895Z,15.10
2023-02-09T23:44:04.678Z,14.10
2023-02-09T23:46:33.099Z,17.10
2023-02-09T23:49:01.309Z,16.20
2023-02-09T23:51:31.678Z,16.80
2023-02-09T23:56:30.043Z,15.40
2023-02-09T23:58:58.208Z,17.20
